Terminal Aerodrome Forecast
Issued by NWS

Home | Current Version | Previous Version | Text Only | Print | Product List | Glossary On
Versions: 1 2 3 4 5 6 7 8 9 10 11 12 13 14
845
FTUS43 KICT 242109 AAA
TAFCNU
TAF AMD
KCNU 242109Z 2421/2518 17012KT P6SM VCTS SCT030 BKN080CB
     FM250000 16009KT P6SM SCT200
     FM250900 18007KT P6SM VCTS BKN100CB
     FM251200 19006KT P6SM BKN200=

USA.gov is the U.S. government's official web portal to all federal, state and local government web resources and services.